Time;durP1;ratioP1;P1;durP2;ratioP2;P2;SDS_P1;SDS_P2;PMS_P1;PMS_P2;Temp;Humidity;BMP_temperature;BMP_pressure;BME280_temperature;BME280_humidity;BME280_pressure;Samples;Min_cycle;Max_cycle;Signal;HPM_P1;HPM_P2
2022/12/21 00:02:03;;;;;;;30.20;4.30;;;;;;;;;;4999431;28;20182;-52
2022/12/21 00:04:29;;;;;;;27.87;3.40;;;;;;;;;;5009976;28;20171;-52
2022/12/21 00:06:56;;;;;;;23.77;3.07;;;;;;;;;;5011653;28;20182;-52
2022/12/21 00:09:22;;;;;;;36.57;3.57;;;9.50;99.90;;;;;;5008241;28;20202;-51
2022/12/21 00:11:48;;;;;;;24.87;3.23;;;;;;;;;;5012326;28;20182;-53
2022/12/21 00:14:14;;;;;;;29.63;3.53;;;;;;;;;;5012081;28;20175;-53
2022/12/21 00:16:41;;;;;;;24.37;3.37;;;9.40;99.90;;;;;;5012171;28;20217;-51
2022/12/21 00:19:07;;;;;;;25.30;3.53;;;;;;;;;;5012072;28;20166;-51
2022/12/21 00:21:36;;;;;;;24.70;3.00;;;9.10;99.90;;;;;;5011963;28;20664;-51
2022/12/21 00:24:02;;;;;;;23.43;2.77;;;;;;;;;;5012042;28;20178;-51
2022/12/21 00:26:30;;;;;;;33.60;3.47;;;9.40;99.90;;;;;;5012492;28;20181;-51
2022/12/21 00:28:57;;;;;;;24.57;2.87;;;9.40;99.90;;;;;;5011960;28;20171;-52
2022/12/21 00:31:35;;;;;;;20.70;2.97;;;9.30;99.90;;;;;;4999334;28;20182;-52
2022/12/21 00:34:01;;;;;;;21.80;3.33;;;;;;;;;;4992283;28;20258;-52
2022/12/21 00:36:29;;;;;;;21.17;2.60;;;9.50;99.90;;;;;;5006893;28;20212;-53
2022/12/21 00:38:56;;;;;;;26.50;2.97;;;11.60;99.90;;;;;;5011597;28;20286;-52
2022/12/21 00:41:22;;;;;;;18.87;3.10;;;;;;;;;;5011534;28;20297;-52
2022/12/21 00:43:49;;;;;;;29.53;3.13;;;;;;;;;;5011004;28;20209;-52
2022/12/21 00:46:17;;;;;;;23.40;3.27;;;;;;;;;;5011524;28;20209;-52
2022/12/21 00:48:43;;;;;;;18.13;2.20;;;;;;;;;;5011236;28;20218;-53
2022/12/21 00:51:12;;;;;;;24.03;2.80;;;9.50;99.90;;;;;;5011249;28;20641;-52
2022/12/21 00:53:38;;;;;;;26.20;3.20;;;;;;;;;;5011134;28;20236;-52
2022/12/21 00:56:06;;;;;;;26.87;2.83;;;9.60;99.90;;;;;;5010919;28;20226;-52
2022/12/21 00:58:32;;;;;;;26.67;3.07;;;;;;;;;;5006786;28;20190;-52
2022/12/21 01:00:59;;;;;;;11.53;2.67;;;9.70;99.90;;;;;;5009014;28;20210;-51
2022/12/21 01:03:26;;;;;;;20.63;2.50;;;9.70;99.90;;;;;;4995042;28;20175;-51
2022/12/21 01:05:53;;;;;;;25.13;3.03;;;;;;;;;;5000728;28;20182;-51
2022/12/21 01:08:20;;;;;;;22.47;2.83;;;9.40;99.90;;;;;;5005355;28;20194;-51
2022/12/21 01:10:46;;;;;;;16.80;2.40;;;;;;;;;;5007947;28;20236;-51
2022/12/21 01:13:12;;;;;;;24.87;2.97;;;;;;;;;;5010832;28;20170;-51
2022/12/21 01:15:45;;;;;;;23.30;2.10;;;;;;;;;;5011281;28;20210;-51
2022/12/21 01:18:12;;;;;;;21.77;2.40;;;;;;;;;;5011195;28;20185;-51
2022/12/21 01:20:46;;;;;;;16.37;2.13;;;9.60;99.90;;;;;;5011213;28;20198;-51
2022/12/21 01:23:12;;;;;;;17.60;2.50;;;9.50;99.90;;;;;;5011215;28;20711;-52
2022/12/21 01:25:38;;;;;;;21.27;2.63;;;9.80;99.90;;;;;;5011268;28;20193;-52
2022/12/21 01:28:04;;;;;;;27.57;2.63;;;9.60;99.90;;;;;;5011144;28;20210;-52
2022/12/21 01:30:31;;;;;;;26.57;2.70;;;;;;;;;;5010998;28;20170;-51
2022/12/21 01:32:57;;;;;;;11.90;2.37;;;;;;;;;;5011065;28;20537;-51
2022/12/21 01:35:23;;;;;;;13.53;1.30;;;;;;;;;;5010999;28;20214;-57
2022/12/21 01:37:49;;;;;;;12.23;1.80;;;;;;;;;;5010978;28;20650;-52
2022/12/21 01:40:15;;;;;;;20.33;2.83;;;;;;;;;;5010978;28;20185;-51
2022/12/21 01:42:41;;;;;;;14.27;2.40;;;;;;;;;;5010984;28;20178;-51
2022/12/21 01:45:23;;;;;;;19.27;2.57;;;;;;;;;;5010691;28;20214;-52
2022/12/21 01:47:49;;;;;;;21.13;2.60;;;;;;;;;;5010747;28;20182;-51
2022/12/21 01:50:23;;;;;;;24.43;2.00;;;;;;;;;;5008022;28;20567;-51
2022/12/21 01:52:49;;;;;;;21.00;2.87;;;;;;;;;;5010598;28;20186;-52
2022/12/21 01:55:15;;;;;;;15.97;2.37;;;;;;;;;;5010353;28;20234;-51
2022/12/21 01:57:41;;;;;;;15.77;2.30;;;;;;;;;;5010590;28;20174;-52
2022/12/21 02:00:09;;;;;;;19.33;2.60;;;9.60;99.90;;;;;;5008162;28;20557;-52
2022/12/21 02:02:44;;;;;;;17.83;2.37;;;10.00;99.90;;;;;;5002942;28;20198;-49
2022/12/21 02:05:33;;;;;;;18.40;2.40;;;9.60;99.90;;;;;;4997877;28;20179;-50
2022/12/21 02:08:02;;;;;;;11.47;2.07;;;9.70;99.90;;;;;;5008988;28;20206;-52
2022/12/21 02:10:28;;;;;;;25.50;2.93;;;9.90;99.90;;;;;;5008829;28;20171;-51
2022/12/21 02:13:13;;;;;;;25.70;2.77;;;9.90;99.90;;;;;;5013894;28;20541;-51
2022/12/21 02:16:00;;;;;;;22.57;2.40;;;10.00;99.90;;;;;;5004793;28;20695;-50
2022/12/21 02:18:55;;;;;;;17.27;2.07;;;10.00;99.90;;;;;;5014345;28;20198;-50
2022/12/21 02:21:29;;;;;;;19.53;2.37;;;9.80;99.90;;;;;;4994628;28;20271;-51
2022/12/21 02:24:07;;;;;;;16.67;1.90;;;10.10;99.90;;;;;;4994688;28;20175;-54
2022/12/21 02:26:51;;;;;;;12.90;1.57;;;;;;;;;;4994574;28;20182;-51
2022/12/21 02:29:17;;;;;;;16.30;2.03;;;;;;;;;;4994587;28;20627;-53
2022/12/21 02:31:59;;;;;;;16.13;1.67;;;10.00;99.90;;;;;;5003031;28;20262;-50
2022/12/21 02:34:43;;;;;;;9.63;1.50;;;;;;;;;;5014049;28;20202;-51
2022/12/21 02:37:19;;;;;;;14.43;2.33;;;9.90;99.90;;;;;;5011650;28;20214;-51
2022/12/21 02:40:12;;;;;;;9.67;1.33;;;9.80;99.90;;;;;;5005289;28;20722;-51
2022/12/21 02:45:52;;;;;;;19.97;2.07;;;10.10;99.90;;;;;;4994426;28;20267;-52
2022/12/21 02:48:38;;;;;;;11.90;1.60;;;10.10;99.90;;;;;;5009983;28;20230;-51
2022/12/21 02:51:08;;;;;;;17.87;2.70;;;10.00;99.90;;;;;;5015692;28;20239;-51
2022/12/21 02:53:36;;;;;;;11.30;1.33;;;9.70;99.90;;;;;;5013688;28;20174;-51
2022/12/21 02:56:02;;;;;;;12.40;1.70;;;9.90;99.90;;;;;;5013260;28;20214;-51
2022/12/21 02:58:28;;;;;;;11.17;1.73;;;10.10;99.90;;;;;;5004681;28;20814;-51
2022/12/21 03:01:03;;;;;;;13.70;1.60;;;9.90;99.90;;;;;;5012805;28;20265;-51
2022/12/21 03:03:50;;;;;;;6.30;0.80;;;9.80;99.90;;;;;;5000167;28;20179;-51
2022/12/21 03:06:48;;;;;;;13.03;1.93;;;9.60;99.90;;;;;;5007576;28;20182;-53
2022/12/21 03:09:13;;;;;;;8.77;1.53;;;9.80;99.90;;;;;;5005848;28;20187;-50
2022/12/21 03:11:47;;;;;;;10.10;1.27;;;9.80;99.90;;;;;;5012715;28;20232;-51
2022/12/21 03:14:21;;;;;;;11.33;1.13;;;9.80;99.90;;;;;;5012801;28;20170;-51
2022/12/21 03:16:52;;;;;;;10.80;1.30;;;9.80;99.90;;;;;;5013133;28;20653;-51
2022/12/21 03:19:19;;;;;;;8.83;1.40;;;;;;;;;;5012986;28;21042;-51
2022/12/21 03:21:53;;;;;;;11.50;1.70;;;9.90;99.90;;;;;;5013247;28;20214;-51
2022/12/21 03:25:02;;;;;;;12.20;1.80;;;9.80;99.90;;;;;;5013116;28;20166;-57
2022/12/21 03:27:34;;;;;;;7.27;1.10;;;9.70;99.90;;;;;;4993623;28;20194;-51
2022/12/21 03:30:04;;;;;;;12.77;1.37;;;9.70;99.90;;;;;;5013129;28;20179;-50
2022/12/21 03:32:58;;;;;;;9.93;1.47;;;9.80;99.90;;;;;;5013032;28;20221;-50
2022/12/21 03:35:34;;;;;;;8.30;1.13;;;9.70;99.90;;;;;;5012861;28;20222;-50
2022/12/21 03:38:02;;;;;;;9.57;1.53;;;9.70;99.90;;;;;;5012940;28;20178;-50
2022/12/21 03:40:32;;;;;;;15.70;1.60;;;9.80;99.90;;;;;;5012929;28;20169;-50
2022/12/21 03:43:04;;;;;;;10.57;1.13;;;9.60;99.90;;;;;;5013042;28;20185;-50
2022/12/21 03:45:42;;;;;;;11.73;1.10;;;9.60;99.90;;;;;;5012338;28;20167;-51
2022/12/21 03:48:14;;;;;;;13.27;1.77;;;9.70;99.90;;;;;;5012524;28;20665;-50
2022/12/21 03:50:44;;;;;;;17.53;1.77;;;9.60;99.90;;;;;;5011981;28;20677;-51
2022/12/21 03:53:45;;;;;;;12.43;1.70;;;9.70;99.90;;;;;;4996376;28;20206;-51
2022/12/21 03:56:16;;;;;;;8.00;1.07;;;9.70;99.90;;;;;;4996671;28;20230;-51
2022/12/21 03:58:42;;;;;;;10.67;1.17;;;9.40;99.90;;;;;;5007479;28;20240;-51
2022/12/21 04:01:26;;;;;;;7.63;0.80;;;9.70;99.90;;;;;;5011496;28;20291;-52
2022/12/21 04:03:58;;;;;;;9.53;1.43;;;9.70;99.90;;;;;;5000242;28;20197;-54
2022/12/21 04:06:28;;;;;;;4.87;0.77;;;9.70;99.90;;;;;;5011957;28;20170;-53
2022/12/21 04:08:54;;;;;;;15.60;1.63;;;9.70;99.90;;;;;;5009221;28;20198;-50
2022/12/21 04:14:04;;;;;;;7.60;0.70;;;9.80;99.90;;;;;;5010030;28;20324;-50
2022/12/21 04:16:29;;;;;;;18.67;1.20;;;9.80;99.90;;;;;;5011610;28;20305;-51
2022/12/21 04:21:39;;;;;;;12.03;1.57;;;9.80;99.90;;;;;;5012285;28;20712;-52
2022/12/21 04:29:33;;;;;;;11.00;1.23;;;9.80;99.90;;;;;;5011839;28;20266;-50
2022/12/21 04:31:59;;;;;;;10.87;1.70;;;9.80;99.90;;;;;;5007536;28;20632;-53
2022/12/21 04:34:25;;;;;;;9.63;1.23;;;9.80;99.90;;;;;;4998819;28;20232;-50
2022/12/21 04:39:34;;;;;;;13.23;1.17;;;9.70;99.90;;;;;;4996689;28;20193;-51
2022/12/21 04:42:00;;;;;;;5.83;0.90;;;;;;;;;;5010903;28;20269;-51
2022/12/21 04:44:26;;;;;;;11.63;1.00;;;9.70;99.90;;;;;;5011595;28;20182;-50
2022/12/21 04:46:52;;;;;;;9.97;0.90;;;9.70;99.90;;;;;;5011447;28;20249;-51
2022/12/21 04:49:17;;;;;;;14.57;1.70;;;9.70;99.90;;;;;;5009176;28;20226;-51
2022/12/21 04:51:43;;;;;;;11.50;1.23;;;9.80;99.90;;;;;;4999694;28;20182;-51
2022/12/21 04:54:09;;;;;;;4.90;0.80;;;9.60;99.90;;;;;;5010628;28;20175;-51
2022/12/21 04:56:35;;;;;;;12.87;1.60;;;;;;;;;;5001766;28;20276;-50
2022/12/21 04:59:01;;;;;;;10.27;1.53;;;9.60;99.90;;;;;;5010489;28;20178;-52
2022/12/21 05:01:26;;;;;;;12.17;0.97;;;9.70;99.90;;;;;;5009912;28;20244;-53
2022/12/21 05:03:56;;;;;;;13.10;1.00;;;9.60;99.90;;;;;;5010685;28;20650;-50
2022/12/21 05:06:21;;;;;;;13.83;1.43;;;9.90;99.90;;;;;;5010429;28;20740;-51
2022/12/21 05:08:47;;;;;;;9.53;1.07;;;9.60;99.90;;;;;;5001509;28;20255;-50
2022/12/21 05:11:14;;;;;;;9.87;1.10;;;9.70;99.90;;;;;;4992144;28;20638;-51
2022/12/21 05:13:41;;;;;;;11.20;1.50;;;9.60;99.90;;;;;;5010176;28;20634;-51
2022/12/21 05:16:09;;;;;;;8.60;1.10;;;9.50;99.90;;;;;;5006434;28;20282;-52
2022/12/21 05:18:36;;;;;;;9.40;1.20;;;;;;;;;;4998876;28;20633;-52
2022/12/21 05:21:02;;;;;;;10.40;0.93;;;9.40;99.90;;;;;;5010653;28;20178;-54
2022/12/21 05:23:27;;;;;;;9.13;2.23;;;9.70;99.90;;;;;;5009045;28;20666;-54
2022/12/21 05:25:53;;;;;;;4.80;1.17;;;9.70;99.90;;;;;;5010449;28;20169;-50
2022/12/21 05:28:19;;;;;;;15.67;1.57;;;9.70;99.90;;;;;;4989819;28;20229;-52
2022/12/21 05:30:44;;;;;;;11.77;1.37;;;9.70;99.90;;;;;;5001255;28;20240;-53
2022/12/21 05:33:10;;;;;;;14.20;1.53;;;9.70;99.90;;;;;;5009322;28;20178;-51
2022/12/21 05:35:39;;;;;;;12.73;1.53;;;9.70;99.90;;;;;;4993407;28;20739;-54
2022/12/21 05:38:06;;;;;;;10.07;0.97;;;9.60;99.90;;;;;;5006252;28;20198;-54
2022/12/21 05:40:33;;;;;;;7.87;1.33;;;9.70;99.90;;;;;;5007276;28;20186;-52
2022/12/21 05:42:59;;;;;;;7.00;1.00;;;9.80;99.90;;;;;;5003599;28;20194;-52
2022/12/21 05:45:24;;;;;;;8.20;1.10;;;9.80;99.90;;;;;;5012623;28;20182;-54
2022/12/21 05:47:50;;;;;;;10.47;1.20;;;9.80;99.90;;;;;;5013400;28;20179;-52
2022/12/21 05:50:16;;;;;;;5.50;0.60;;;10.10;99.90;;;;;;4974472;28;1168038;-52
2022/12/21 05:52:42;;;;;;;7.83;0.90;;;9.70;99.90;;;;;;5014823;28;20189;-55
2022/12/21 05:55:08;;;;;;;9.50;1.47;;;9.80;99.90;;;;;;5014778;28;20216;-51
2022/12/21 05:57:33;;;;;;;9.43;1.20;;;10.00;99.90;;;;;;5015162;28;20178;-53
2022/12/21 05:59:59;;;;;;;8.07;1.43;;;10.10;99.90;;;;;;5014723;28;20765;-51
2022/12/21 06:02:24;;;;;;;12.17;1.13;;;9.90;99.90;;;;;;5014721;28;20202;-51
2022/12/21 06:04:50;;;;;;;9.77;1.23;;;9.90;99.90;;;;;;5014625;28;20202;-51
2022/12/21 06:07:16;;;;;;;11.07;1.10;;;9.70;99.90;;;;;;5014530;28;20178;-52
2022/12/21 06:09:41;;;;;;;12.03;1.17;;;9.90;99.90;;;;;;5014600;28;20182;-51
2022/12/21 06:12:07;;;;;;;12.47;1.80;;;9.90;99.90;;;;;;5014570;28;20175;-52
2022/12/21 06:14:33;;;;;;;5.37;1.20;;;9.90;99.90;;;;;;5014159;28;20517;-52
2022/12/21 06:16:58;;;;;;;10.93;1.10;;;9.80;99.90;;;;;;5014205;28;20178;-54
2022/12/21 06:19:24;;;;;;;13.83;1.20;;;9.80;99.90;;;;;;5013352;28;20243;-51
2022/12/21 06:21:50;;;;;;;17.03;1.37;;;;;;;;;;4998398;28;20181;-50
2022/12/21 06:24:16;;;;;;;13.13;0.97;;;9.60;99.90;;;;;;5014052;28;20178;-50
2022/12/21 06:26:41;;;;;;;13.47;1.30;;;9.70;99.90;;;;;;5014222;28;20183;-50
2022/12/21 06:29:07;;;;;;;16.37;1.63;;;9.90;99.90;;;;;;5014106;28;20261;-51
2022/12/21 06:31:33;;;;;;;8.50;1.37;;;9.50;99.90;;;;;;5013703;28;20228;-52
2022/12/21 06:33:58;;;;;;;10.17;1.17;;;9.60;99.90;;;;;;5012318;28;20237;-52
2022/12/21 06:36:24;;;;;;;11.57;1.00;;;9.30;99.90;;;;;;5013428;28;20210;-54
2022/12/21 06:38:50;;;;;;;9.70;1.10;;;9.60;99.90;;;;;;5013506;28;20236;-52
2022/12/21 06:41:17;;;;;;;10.90;1.20;;;9.50;99.90;;;;;;4993919;28;20186;-51
2022/12/21 06:43:44;;;;;;;7.10;0.90;;;;;;;;;;5010646;28;20175;-50
2022/12/21 06:46:12;;;;;;;11.43;1.60;;;9.60;99.90;;;;;;4997182;28;20685;-50
2022/12/21 06:48:38;;;;;;;13.93;1.60;;;9.50;99.90;;;;;;5010878;28;20218;-51
2022/12/21 06:51:07;;;;;;;8.43;1.00;;;9.30;99.90;;;;;;4998287;28;20187;-50
2022/12/21 06:53:35;;;;;;;9.87;1.17;;;9.30;99.90;;;;;;5013245;28;20282;-50
2022/12/21 06:56:04;;;;;;;13.43;1.10;;;8.20;99.90;;;;;;5013134;28;20572;-50
2022/12/21 06:58:31;;;;;;;13.77;1.30;;;9.30;99.90;;;;;;5013703;28;20228;-54
2022/12/21 07:01:02;;;;;;;8.87;0.83;;;9.50;99.90;;;;;;5012825;28;20195;-52
2022/12/21 07:03:28;;;;;;;10.63;1.00;;;9.10;99.90;;;;;;5005367;28;20180;-50
2022/12/21 07:05:54;;;;;;;5.93;0.77;;;9.40;99.90;;;;;;5004646;28;20187;-50
2022/12/21 07:08:21;;;;;;;8.10;0.93;;;;;;;;;;5013229;28;20190;-50
2022/12/21 07:10:47;;;;;;;7.73;0.90;;;;;;;;;;5013078;28;20190;-50
2022/12/21 07:13:13;;;;;;;12.93;1.40;;;9.50;99.90;;;;;;5004568;28;20269;-51
2022/12/21 07:15:39;;;;;;;10.07;1.27;;;9.50;99.90;;;;;;5013141;28;20337;-50
2022/12/21 07:18:05;;;;;;;11.00;1.43;;;;;;;;;;5017357;28;20174;-51
2022/12/21 07:20:30;;;;;;;8.10;1.20;;;9.40;99.90;;;;;;5013342;28;20238;-52
2022/12/21 07:22:56;;;;;;;12.57;1.10;;;9.30;99.90;;;;;;5013320;28;20617;-50
2022/12/21 07:25:22;;;;;;;11.30;1.83;;;9.40;99.90;;;;;;5013009;28;20179;-50
2022/12/21 07:27:47;;;;;;;10.57;1.37;;;9.10;99.90;;;;;;5013123;28;20633;-52
2022/12/21 07:30:13;;;;;;;16.50;1.57;;;9.30;99.90;;;;;;5017001;28;20587;-51
2022/12/21 07:32:39;;;;;;;6.47;0.80;;;9.20;99.90;;;;;;5012963;28;20269;-52
2022/12/21 07:35:05;;;;;;;15.67;1.47;;;9.10;99.90;;;;;;5012846;28;20250;-54
2022/12/21 07:37:32;;;;;;;16.73;1.13;;;9.30;99.90;;;;;;5012820;28;20197;-52
2022/12/21 07:39:57;;;;;;;9.77;1.07;;;9.40;99.90;;;;;;5005205;28;20186;-53
2022/12/21 07:42:24;;;;;;;10.33;1.03;;;9.40;99.90;;;;;;5013099;28;20174;-52
2022/12/21 07:44:49;;;;;;;16.50;1.17;;;9.60;99.90;;;;;;4998739;28;20186;-52
2022/12/21 07:47:15;;;;;;;11.17;1.40;;;9.40;99.90;;;;;;5008735;28;20178;-52
2022/12/21 07:49:41;;;;;;;9.07;1.20;;;9.40;99.90;;;;;;5012260;28;20222;-52
2022/12/21 07:52:06;;;;;;;5.73;1.07;;;9.40;99.90;;;;;;5011687;28;20182;-51
2022/12/21 07:54:32;;;;;;;10.27;1.30;;;9.40;99.90;;;;;;5011795;28;20182;-52
2022/12/21 07:56:59;;;;;;;15.17;1.50;;;9.40;99.90;;;;;;5012213;28;20559;-54
2022/12/21 07:59:25;;;;;;;12.93;1.50;;;9.60;99.90;;;;;;5011781;28;20175;-53
2022/12/21 08:01:50;;;;;;;17.27;1.90;;;9.60;99.90;;;;;;5010202;28;20181;-53
2022/12/21 08:04:16;;;;;;;5.53;1.10;;;9.30;99.90;;;;;;5012213;28;20171;-52
2022/12/21 08:06:42;;;;;;;13.40;1.33;;;9.00;99.90;;;;;;5010874;28;20185;-51
2022/12/21 08:09:08;;;;;;;13.43;1.57;;;8.90;99.90;;;;;;5012224;28;20179;-50
2022/12/21 08:11:33;;;;;;;9.47;1.17;;;9.40;99.90;;;;;;5010676;28;20700;-50
2022/12/21 08:13:59;;;;;;;14.33;1.20;;;9.30;99.90;;;;;;4997420;28;20711;-50
2022/12/21 08:16:26;;;;;;;11.73;1.20;;;9.00;99.90;;;;;;5011933;28;20692;-51
2022/12/21 08:18:54;;;;;;;11.07;1.30;;;9.30;99.90;;;;;;5011879;28;20645;-51
2022/12/21 08:21:20;;;;;;;10.37;1.33;;;9.40;99.90;;;;;;5011504;28;20199;-53
2022/12/21 08:23:47;;;;;;;11.23;1.23;;;9.00;99.90;;;;;;5011843;28;20604;-54
2022/12/21 08:26:14;;;;;;;13.23;1.57;;;9.20;99.90;;;;;;5012160;28;20175;-55
2022/12/21 08:28:41;;;;;;;9.33;1.33;;;9.30;99.90;;;;;;5012187;28;20175;-54
2022/12/21 08:31:09;;;;;;;9.27;1.00;;;9.20;99.90;;;;;;5009703;28;20177;-55
2022/12/21 08:33:35;;;;;;;7.53;1.33;;;9.50;99.90;;;;;;5011451;28;20179;-55
2022/12/21 08:36:01;;;;;;;7.77;1.03;;;9.10;99.90;;;;;;5004046;28;20518;-55
2022/12/21 08:38:27;;;;;;;17.07;1.33;;;9.20;99.90;;;;;;5012047;28;20201;-55
2022/12/21 08:40:52;;;;;;;13.33;1.10;;;9.20;99.90;;;;;;5012043;28;20700;-55
2022/12/21 08:43:19;;;;;;;14.30;1.20;;;9.30;99.90;;;;;;5011725;28;20277;-55
2022/12/21 08:45:44;;;;;;;11.30;1.57;;;9.20;99.90;;;;;;5011197;28;20228;-55
2022/12/21 08:48:11;;;;;;;6.07;1.30;;;9.20;99.90;;;;;;5011575;28;20573;-55
2022/12/21 08:50:37;;;;;;;10.03;1.30;;;9.40;99.90;;;;;;5011510;28;20182;-55
2022/12/21 08:53:02;;;;;;;8.93;1.17;;;9.10;99.90;;;;;;5010412;28;20548;-55
2022/12/21 08:55:30;;;;;;;8.23;1.10;;;9.30;99.90;;;;;;5010944;28;20216;-55
2022/12/21 08:57:55;;;;;;;9.10;1.13;;;9.30;99.90;;;;;;5011204;28;20181;-55
2022/12/21 09:00:21;;;;;;;7.27;1.13;;;9.30;99.90;;;;;;5011458;28;20353;-55
2022/12/21 09:02:47;;;;;;;9.67;1.03;;;9.30;99.90;;;;;;5011079;28;20178;-54
2022/12/21 09:05:13;;;;;;;6.80;0.70;;;;;;;;;;5010659;28;20178;-54
2022/12/21 09:07:38;;;;;;;6.87;0.60;;;9.30;99.90;;;;;;5011077;28;20182;-53
2022/12/21 09:10:05;;;;;;;4.63;0.70;;;9.40;99.90;;;;;;5004715;28;20241;-54
2022/12/21 09:12:30;;;;;;;6.67;0.70;;;9.40;99.90;;;;;;4991731;28;20179;-53
2022/12/21 09:14:56;;;;;;;6.33;0.67;;;9.40;99.90;;;;;;4997638;28;20209;-54
2022/12/21 09:17:22;;;;;;;14.77;1.23;;;;;;;;;;5009873;28;20637;-53
2022/12/21 09:19:48;;;;;;;5.97;0.83;;;;;;;;;;5010615;28;20182;-50
2022/12/21 09:22:14;;;;;;;5.10;1.03;;;9.50;99.90;;;;;;5011484;28;20182;-54
2022/12/21 09:24:39;;;;;;;6.30;0.77;;;9.70;99.90;;;;;;5011301;28;20732;-50
2022/12/21 09:27:05;;;;;;;6.17;0.60;;;;;;;;;;5010425;28;20666;-51
2022/12/21 09:29:31;;;;;;;4.43;0.87;;;;;;;;;;5010660;28;20257;-50
2022/12/21 09:31:58;;;;;;;8.00;1.03;;;;;;;;;;5005452;28;20317;-49
2022/12/21 09:34:24;;;;;;;7.03;1.00;;;;;;;;;;5009614;28;20625;-49
2022/12/21 09:36:50;;;;;;;8.03;0.97;;;;;;;;;;5010852;28;20707;-52
2022/12/21 09:39:16;;;;;;;7.70;0.87;;;;;;;;;;5000832;28;20187;-54
2022/12/21 09:42:19;;;;;;;7.70;0.80;;;9.90;99.90;;;;;;4992399;28;20187;-49
2022/12/21 09:44:50;;;;;;;9.90;1.13;;;9.70;99.90;;;;;;4991395;28;20183;-50
2022/12/21 09:47:21;;;;;;;5.83;1.13;;;9.70;99.90;;;;;;4992410;28;20182;-52
2022/12/21 09:50:01;;;;;;;10.90;1.03;;;9.80;99.90;;;;;;4991222;28;20223;-50
2022/12/21 09:52:30;;;;;;;7.00;1.20;;;;;;;;;;4991847;28;20254;-50
2022/12/21 09:55:09;;;;;;;5.97;1.03;;;9.90;99.90;;;;;;5006140;28;20210;-51
2022/12/21 09:57:35;;;;;;;11.53;1.40;;;10.30;99.90;;;;;;4995820;28;20182;-53
2022/12/21 10:00:13;;;;;;;4.97;0.67;;;10.80;99.90;;;;;;5007657;28;20182;-51
2022/12/21 10:02:56;;;;;;;6.87;0.90;;;11.50;99.90;;;;;;5006987;28;20226;-51
2022/12/21 10:05:37;;;;;;;7.57;1.10;;;11.50;99.90;;;;;;5010717;28;20197;-51
2022/12/21 10:08:14;;;;;;;9.13;1.00;;;11.10;99.90;;;;;;5010735;28;20175;-53
2022/12/21 10:10:54;;;;;;;26.57;2.30;;;10.90;99.90;;;;;;5009986;28;20174;-50
2022/12/21 10:13:39;;;;;;;12.13;1.10;;;10.80;99.90;;;;;;5010226;28;20202;-50
2022/12/21 10:16:26;;;;;;;8.50;0.87;;;10.80;99.90;;;;;;5010457;28;20207;-50
2022/12/21 10:19:08;;;;;;;11.10;1.50;;;10.80;99.90;;;;;;5007254;28;20203;-51
2022/12/21 10:21:34;;;;;;;11.60;1.20;;;10.90;99.90;;;;;;5010749;28;20176;-51
2022/12/21 10:24:05;;;;;;;7.07;1.10;;;11.00;99.90;;;;;;5010214;28;20656;-52
2022/12/21 10:26:33;;;;;;;8.67;1.40;;;11.10;99.90;;;;;;4996398;28;20528;-52
2022/12/21 10:29:14;;;;;;;9.47;1.03;;;11.20;99.90;;;;;;5010903;28;20194;-52
2022/12/21 10:31:48;;;;;;;7.33;1.13;;;11.30;99.90;;;;;;4996758;28;20235;-50
2022/12/21 10:34:23;;;;;;;6.17;1.40;;;11.90;99.90;;;;;;4997529;28;20178;-53
2022/12/21 10:36:54;;;;;;;10.77;1.13;;;11.70;99.90;;;;;;5009326;28;20205;-49
2022/12/21 10:39:20;;;;;;;5.83;1.00;;;11.60;99.90;;;;;;5012233;28;20287;-49
2022/12/21 10:42:01;;;;;;;7.73;1.00;;;12.20;99.90;;;;;;4994316;28;20587;-50
2022/12/21 10:44:27;;;;;;;6.00;0.80;;;;;;;;;;4994261;28;20198;-51
2022/12/21 10:46:54;;;;;;;10.60;1.23;;;12.90;99.90;;;;;;5003751;28;20183;-50
2022/12/21 10:49:38;;;;;;;8.20;0.80;;;13.10;99.90;;;;;;5013194;28;20226;-53
2022/12/21 10:52:57;;;;;;;6.40;0.80;;;12.80;99.90;;;;;;5013577;28;20217;-52
2022/12/21 10:55:24;;;;;;;7.73;1.03;;;12.80;99.90;;;;;;5030966;28;20214;-56
2022/12/21 10:57:52;;;;;;;7.67;1.10;;;13.50;99.90;;;;;;5016896;28;20174;-49
2022/12/21 11:00:27;;;;;;;10.53;1.60;;;13.10;99.90;;;;;;5002628;28;20663;-50
2022/12/21 11:02:56;;;;;;;6.50;0.80;;;13.00;99.90;;;;;;5013634;28;20170;-52
2022/12/21 11:05:34;;;;;;;9.07;1.27;;;13.20;99.90;;;;;;5013579;28;20205;-49
2022/12/21 11:08:18;;;;;;;4.87;0.60;;;13.10;99.90;;;;;;5012957;28;20167;-50
2022/12/21 11:10:47;;;;;;;7.97;1.00;;;13.10;99.90;;;;;;5013679;28;20185;-52
2022/12/21 11:13:14;;;;;;;8.37;1.13;;;13.20;99.90;;;;;;5012637;28;20175;-53
2022/12/21 11:15:51;;;;;;;5.70;0.50;;;12.90;99.90;;;;;;5005446;28;20246;-51
2022/12/21 11:18:44;;;;;;;4.97;0.83;;;13.30;99.90;;;;;;4993757;28;20222;-50
2022/12/21 11:21:21;;;;;;;6.10;1.03;;;13.60;99.90;;;;;;4992210;28;20187;-50
2022/12/21 11:23:59;;;;;;;5.30;1.10;;;14.20;99.90;;;;;;4987715;28;20751;-51
2022/12/21 11:26:30;;;;;;;4.50;0.67;;;14.70;99.90;;;;;;4998734;28;20178;-51
2022/12/21 11:29:06;;;;;;;9.55;0.90;;;16.00;99.90;;;;;;5008088;28;20191;-50
2022/12/21 11:31:33;;;;;;;5.88;0.85;;;16.40;99.90;;;;;;4993454;28;20204;-50
2022/12/21 11:33:59;;;;;;;9.00;1.00;;;16.50;99.90;;;;;;4993495;28;20662;-48
2022/12/21 11:36:25;;;;;;;6.60;1.15;;;;;;;;;;4999198;28;20249;-49
2022/12/21 11:38:50;;;;;;;2.30;0.50;;;16.30;99.90;;;;;;5012909;28;20185;-50
2022/12/21 11:41:28;;;;;;;3.35;0.75;;;16.50;99.90;;;;;;5011546;28;20186;-53
2022/12/21 11:43:55;;;;;;;9.85;1.00;;;17.80;99.90;;;;;;5013078;28;20171;-50
2022/12/21 11:46:27;;;;;;;5.07;0.68;;;19.80;99.90;;;;;;5012268;28;20202;-49
2022/12/21 11:49:16;;;;;;;5.18;0.70;;;20.80;99.90;;;;;;5012586;28;20218;-49
2022/12/21 11:52:21;;;;;;;5.82;0.88;;;21.20;99.90;;;;;;5012544;28;20668;-50
2022/12/21 11:55:19;;;;;;;6.18;1.02;;;21.40;99.90;;;;;;5012225;28;20186;-49
2022/12/21 11:58:08;;;;;;;6.18;1.50;;;22.60;99.90;;;;;;5012778;28;20207;-49
2022/12/21 12:00:49;;;;;;;8.43;1.10;;;22.90;99.90;;;;;;5004298;28;20638;-48
2022/12/21 12:03:27;;;;;;;4.53;0.98;;;22.80;99.20;;;;;;5012592;28;20170;-49
2022/12/21 12:06:27;;;;;;;4.68;1.08;;;21.70;96.80;;;;;;5012174;28;20206;-51
2022/12/21 12:09:20;;;;;;;8.65;1.38;;;21.30;96.60;;;;;;5000284;28;20186;-50
2022/12/21 12:12:00;;;;;;;5.15;1.00;;;22.60;96.00;;;;;;5012322;28;20197;-51
2022/12/21 12:14:40;;;;;;;5.45;0.98;;;23.20;94.60;;;;;;5011580;28;20712;-52
2022/12/21 12:17:54;;;;;;;4.28;0.80;;;22.60;93.20;;;;;;4995741;28;20224;-52
2022/12/21 12:20:59;;;;;;;6.72;1.10;;;22.30;91.90;;;;;;5007107;28;20178;-49
2022/12/21 12:23:49;;;;;;;6.05;0.77;;;22.10;90.80;;;;;;4997442;28;20520;-49
2022/12/21 12:26:40;;;;;;;6.03;1.15;;;21.00;90.30;;;;;;5011564;28;20174;-50
2022/12/21 12:29:17;;;;;;;4.38;0.90;;;21.80;92.20;;;;;;5011829;28;20174;-49
2022/12/21 12:32:00;;;;;;;4.47;0.90;;;21.10;94.10;;;;;;5012003;28;20230;-49
2022/12/21 12:34:28;;;;;;;6.45;0.80;;;20.90;87.60;;;;;;5011796;28;20625;-49
2022/12/21 12:37:12;;;;;;;4.70;0.90;;;18.20;85.70;;;;;;5011771;28;20214;-49
2022/12/21 12:40:00;;;;;;;4.32;0.70;;;15.90;90.90;;;;;;5011813;28;20278;-49
2022/12/21 12:42:36;;;;;;;5.97;0.80;;;14.90;96.20;;;;;;5011565;28;20191;-49
2022/12/21 12:45:11;;;;;;;3.38;0.70;;;15.10;99.90;;;;;;5011741;28;20653;-49
2022/12/21 12:47:48;;;;;;;5.57;0.95;;;16.60;99.80;;;;;;5011733;28;20244;-52
2022/12/21 12:50:19;;;;;;;6.57;1.20;;;16.40;95.40;;;;;;5011418;28;20253;-49
2022/12/21 12:53:21;;;;;;;4.28;0.70;;;17.20;99.90;;;;;;5011213;28;20171;-50
2022/12/21 12:56:17;;;;;;;6.45;1.10;;;20.60;95.50;;;;;;5011453;28;20683;-49
2022/12/21 12:58:46;;;;;;;3.58;1.02;;;20.90;92.30;;;;;;5011524;28;20655;-50
2022/12/21 13:01:33;;;;;;;3.05;0.80;;;21.80;87.90;;;;;;5011533;28;20178;-49
2022/12/21 13:03:59;;;;;;;4.80;0.77;;;;;;;;;;5011727;28;20193;-49
2022/12/21 13:06:24;;;;;;;6.50;0.75;;;16.80;99.90;;;;;;5011569;28;20170;-50
2022/12/21 13:08:50;;;;;;;4.50;0.95;;;;;;;;;;5011311;28;20533;-49
2022/12/21 13:11:21;;;;;;;4.75;0.93;;;14.60;99.90;;;;;;5011303;28;20205;-49
2022/12/21 13:13:57;;;;;;;2.55;0.90;;;14.10;99.90;;;;;;5003788;28;20221;-51
2022/12/21 13:16:29;;;;;;;5.63;0.68;;;13.40;99.90;;;;;;5011195;28;20214;-51
2022/12/21 13:18:58;;;;;;;5.13;0.95;;;13.00;99.90;;;;;;5011372;28;20162;-50
2022/12/21 13:21:27;;;;;;;7.00;0.70;;;12.50;99.90;;;;;;5011177;28;20178;-54
2022/12/21 13:24:02;;;;;;;5.70;0.63;;;12.00;99.90;;;;;;5011191;28;20174;-52
2022/12/21 13:26:34;;;;;;;10.27;1.00;;;11.70;99.90;;;;;;5011200;28;20166;-50
2022/12/21 13:29:27;;;;;;;2.33;0.60;;;11.50;99.90;;;;;;5011293;28;20178;-51
2022/12/21 13:32:11;;;;;;;3.93;0.50;;;11.30;99.90;;;;;;5011248;28;20201;-53
2022/12/21 13:34:54;;;;;;;4.80;0.43;;;11.20;99.90;;;;;;5011013;28;20261;-52
2022/12/21 13:37:22;;;;;;;4.57;0.73;;;11.20;99.90;;;;;;5010027;28;20186;-53
2022/12/21 13:40:12;;;;;;;4.63;0.90;;;11.40;99.90;;;;;;5006892;28;20174;-56
2022/12/21 13:42:58;;;;;;;6.53;0.60;;;;;;;;;;5010334;28;20538;-51
2022/12/21 13:46:06;;;;;;;6.97;0.80;;;11.00;99.90;;;;;;5010610;28;20222;-51